createdAt,value
2023-01-19T00:00:20.597Z,14.90
2023-01-19T00:03:15.519Z,15.60
2023-01-19T00:05:43.232Z,15.40
2023-01-19T00:08:17.073Z,17.80
2023-01-19T00:10:46.681Z,16.40
2023-01-19T00:13:14.498Z,15.80
2023-01-19T00:15:41.279Z,12.90
2023-01-19T00:18:10.554Z,15.50
2023-01-19T00:20:38.882Z,15.50
2023-01-19T00:23:07.686Z,17.60
2023-01-19T00:25:35.150Z,15.80
2023-01-19T00:28:01.998Z,16.70
2023-01-19T00:30:29.324Z,16.20
2023-01-19T00:32:56.308Z,14.90
2023-01-19T00:35:22.904Z,15.10
2023-01-19T00:37:49.542Z,15.80
2023-01-19T00:40:16.692Z,14.90
2023-01-19T00:42:43.989Z,14.50
2023-01-19T00:45:18.330Z,15.20
2023-01-19T00:47:46.468Z,15.30
2023-01-19T00:50:16.183Z,14.70
2023-01-19T00:52:44.306Z,14.10
2023-01-19T00:55:15.206Z,13.70
2023-01-19T00:57:42.603Z,15.20
2023-01-19T01:00:15.469Z,14.50
2023-01-19T01:02:43.800Z,16.10
2023-01-19T01:05:11.874Z,15.40
2023-01-19T01:07:44.223Z,14.10
2023-01-19T01:10:15.272Z,14.20
2023-01-19T01:12:54.911Z,14.00
2023-01-19T01:15:29.542Z,14.50
2023-01-19T01:17:56.155Z,15.00
2023-01-19T01:20:26.535Z,13.80
2023-01-19T01:22:54.413Z,15.10
2023-01-19T01:25:23.038Z,17.40
2023-01-19T01:27:50.593Z,16.50
2023-01-19T01:30:18.854Z,17.00
2023-01-19T01:32:45.333Z,14.50
2023-01-19T01:35:13.204Z,17.60
2023-01-19T01:37:42.060Z,14.70
2023-01-19T01:40:11.826Z,16.00
2023-01-19T01:42:39.791Z,16.10
2023-01-19T01:45:28.020Z,16.90
2023-01-19T01:48:01.236Z,16.10
2023-01-19T01:50:32.377Z,16.40
2023-01-19T01:53:11.497Z,16.30
2023-01-19T01:55:47.643Z,15.40
2023-01-19T01:58:15.732Z,15.10
2023-01-19T02:01:01.549Z,14.70
2023-01-19T02:03:28.650Z,14.90
2023-01-19T02:05:59.739Z,14.90
2023-01-19T02:08:57.956Z,13.30
2023-01-19T02:11:43.861Z,13.70
2023-01-19T02:14:10.478Z,14.10
2023-01-19T02:16:37.782Z,14.60
2023-01-19T02:19:08.241Z,14.30
2023-01-19T02:21:43.976Z,14.90
2023-01-19T02:24:11.131Z,14.40
2023-01-19T02:26:41.589Z,14.10
2023-01-19T02:29:11.280Z,13.20
2023-01-19T02:31:39.196Z,14.90
2023-01-19T02:34:11.395Z,17.30
2023-01-19T02:36:57.124Z,17.70
2023-01-19T02:39:32.721Z,15.90
2023-01-19T02:42:07.860Z,17.00
2023-01-19T02:44:36.353Z,17.30
2023-01-19T02:47:03.909Z,16.30
2023-01-19T02:49:30.550Z,16.30
2023-01-19T02:51:58.572Z,17.00
2023-01-19T02:54:45.610Z,16.90
2023-01-19T02:57:33.776Z,16.10
2023-01-19T03:00:07.540Z,15.60
2023-01-19T03:02:44.216Z,16.40
2023-01-19T03:05:45.409Z,17.10
2023-01-19T03:08:56.837Z,17.00
2023-01-19T03:11:29.658Z,16.20
2023-01-19T03:14:20.242Z,16.80
2023-01-19T03:16:55.327Z,17.00
2023-01-19T03:19:35.898Z,17.20
2023-01-19T03:22:07.227Z,17.00
2023-01-19T03:24:38.000Z,14.40
2023-01-19T03:27:28.740Z,15.50
2023-01-19T03:30:09.277Z,14.70
2023-01-19T03:32:42.980Z,15.80
2023-01-19T03:35:13.527Z,19.40
2023-01-19T03:37:45.025Z,25.60
2023-01-19T03:40:11.985Z,18.70
2023-01-19T03:42:40.596Z,16.00
2023-01-19T03:45:08.591Z,15.90
2023-01-19T03:47:35.971Z,14.30
2023-01-19T03:50:07.292Z,14.60
2023-01-19T03:52:34.088Z,14.50
2023-01-19T03:55:03.313Z,12.90
2023-01-19T03:57:30.434Z,15.10
2023-01-19T03:59:57.683Z,13.90
2023-01-19T04:02:24.557Z,14.50
2023-01-19T04:04:51.282Z,13.70
2023-01-19T04:07:17.991Z,15.10
2023-01-19T04:09:44.674Z,15.90
2023-01-19T04:12:11.273Z,15.20
2023-01-19T04:14:38.002Z,15.10
2023-01-19T04:17:04.767Z,15.30
2023-01-19T04:19:31.330Z,16.40
2023-01-19T04:21:58.115Z,16.80
2023-01-19T04:24:24.811Z,15.30
2023-01-19T04:26:52.879Z,15.00
2023-01-19T04:29:19.698Z,16.10
2023-01-19T04:31:46.472Z,14.70
2023-01-19T04:34:12.994Z,14.60
2023-01-19T04:36:39.991Z,14.50
2023-01-19T04:39:08.351Z,14.60
2023-01-19T04:41:34.847Z,16.40
2023-01-19T04:44:01.675Z,14.70
2023-01-19T04:46:28.480Z,13.90
2023-01-19T04:48:54.977Z,14.40
2023-01-19T04:51:21.751Z,14.30
2023-01-19T04:53:48.438Z,14.10
2023-01-19T04:56:14.988Z,14.80
2023-01-19T04:58:41.693Z,14.10
2023-01-19T05:01:09.036Z,13.40
2023-01-19T05:03:35.544Z,12.40
2023-01-19T05:06:02.333Z,14.00
2023-01-19T05:08:28.960Z,15.00
2023-01-19T05:10:56.902Z,15.90
2023-01-19T05:13:23.719Z,14.20
2023-01-19T05:15:50.490Z,14.60
2023-01-19T05:18:17.809Z,13.00
2023-01-19T05:20:44.583Z,14.00
2023-01-19T05:23:11.282Z,13.60
2023-01-19T05:25:37.809Z,12.70
2023-01-19T05:28:04.640Z,13.70
2023-01-19T05:30:31.324Z,13.10
2023-01-19T05:32:58.356Z,12.90
2023-01-19T05:35:35.276Z,12.60
2023-01-19T05:38:03.370Z,12.90
2023-01-19T05:40:29.998Z,13.80
2023-01-19T05:43:00.286Z,13.30
2023-01-19T05:45:27.917Z,12.50
2023-01-19T05:47:54.737Z,13.50
2023-01-19T05:50:21.356Z,11.90
2023-01-19T05:52:48.241Z,11.20
2023-01-19T05:55:16.208Z,13.00
2023-01-19T05:57:42.917Z,12.60
2023-01-19T06:00:10.300Z,13.00
2023-01-19T06:02:36.991Z,12.20
2023-01-19T06:05:04.013Z,13.20
2023-01-19T06:07:31.507Z,12.80
2023-01-19T06:09:58.316Z,12.60
2023-01-19T06:59:42.650Z,13.70
2023-01-19T07:02:26.307Z,14.10
2023-01-19T07:04:55.017Z,11.80
2023-01-19T07:07:21.756Z,11.20
2023-01-19T07:09:48.629Z,12.40
2023-01-19T07:12:15.366Z,11.10
2023-01-19T07:14:42.422Z,11.10
2023-01-19T07:17:09.235Z,11.30
2023-01-19T07:19:36.182Z,13.00
2023-01-19T07:22:03.148Z,11.60
2023-01-19T07:24:30.146Z,11.50
2023-01-19T07:26:56.923Z,11.20
2023-01-19T07:29:24.125Z,9.60
2023-01-19T07:31:53.919Z,10.60
2023-01-19T07:34:21.642Z,11.50
2023-01-19T07:36:48.538Z,10.30
2023-01-19T07:39:15.666Z,10.30
2023-01-19T07:41:42.452Z,10.40
2023-01-19T07:44:09.239Z,10.10
2023-01-19T07:46:36.157Z,10.50
2023-01-19T07:49:03.230Z,10.50
2023-01-19T07:51:29.916Z,11.40
2023-01-19T07:53:56.598Z,13.30
2023-01-19T07:56:24.500Z,13.20
2023-01-19T07:58:51.998Z,11.20
2023-01-19T08:01:18.978Z,13.10
2023-01-19T08:03:48.326Z,12.80
2023-01-19T08:06:34.408Z,9.50
2023-01-19T08:09:02.039Z,12.00
2023-01-19T08:11:28.983Z,13.00
2023-01-19T08:13:55.707Z,12.70
2023-01-19T08:16:22.884Z,13.90
2023-01-19T08:18:53.038Z,11.70
2023-01-19T08:21:19.805Z,13.20
2023-01-19T08:23:57.585Z,12.90
2023-01-19T08:26:33.110Z,13.20
2023-01-19T08:29:03.507Z,13.70
2023-01-19T08:31:30.640Z,13.40
2023-01-19T08:33:57.603Z,12.90
2023-01-19T08:36:24.710Z,13.40
2023-01-19T08:38:52.052Z,13.10
2023-01-19T08:41:19.219Z,13.70
2023-01-19T08:43:46.294Z,13.90
2023-01-19T08:46:16.936Z,13.20
2023-01-19T08:48:50.947Z,14.70
2023-01-19T08:51:18.034Z,13.10
2023-01-19T08:53:44.854Z,14.50
2023-01-19T08:56:13.188Z,12.70
2023-01-19T08:58:41.449Z,12.70
2023-01-19T09:01:08.948Z,13.90
2023-01-19T09:03:36.703Z,12.90
2023-01-19T09:06:07.823Z,14.70
2023-01-19T09:08:34.623Z,14.90
2023-01-19T09:11:01.882Z,13.30
2023-01-19T09:13:28.968Z,12.90
2023-01-19T09:15:55.912Z,11.80
2023-01-19T09:18:23.091Z,12.20
2023-01-19T09:20:50.479Z,11.50
2023-01-19T09:23:19.626Z,13.20
2023-01-19T09:25:47.609Z,13.00
2023-01-19T09:28:17.059Z,13.00
2023-01-19T09:30:44.628Z,11.60
2023-01-19T09:33:16.423Z,11.20
2023-01-19T09:35:45.092Z,11.70
2023-01-19T09:38:14.628Z,13.80
2023-01-19T09:40:43.772Z,11.60
2023-01-19T09:43:39.332Z,12.40
2023-01-19T09:46:29.645Z,12.30
2023-01-19T09:48:59.290Z,10.80
2023-01-19T09:51:29.240Z,12.40
2023-01-19T09:54:20.049Z,14.00
2023-01-19T09:56:52.106Z,12.60
2023-01-19T09:59:29.810Z,12.70
2023-01-19T10:02:18.475Z,13.20
2023-01-19T10:05:02.040Z,10.30
2023-01-19T10:07:53.901Z,10.80
2023-01-19T10:10:25.782Z,13.10
2023-01-19T10:12:56.956Z,11.30
2023-01-19T10:15:49.025Z,9.80
2023-01-19T10:18:42.674Z,11.30
2023-01-19T10:21:15.842Z,9.10
2023-01-19T10:24:05.762Z,10.50
2023-01-19T10:26:43.907Z,10.90
2023-01-19T10:29:37.048Z,8.70
2023-01-19T10:32:08.632Z,9.80
2023-01-19T10:34:36.276Z,8.60
2023-01-19T10:37:31.356Z,9.40
2023-01-19T10:40:19.299Z,9.00
2023-01-19T10:42:46.893Z,8.60
2023-01-19T10:45:18.976Z,8.00
2023-01-19T10:47:46.906Z,9.80
2023-01-19T10:50:34.719Z,9.00
2023-01-19T10:53:05.316Z,9.10
2023-01-19T10:55:37.559Z,9.60
2023-01-19T10:58:06.423Z,9.30
2023-01-19T11:00:42.542Z,8.10
2023-01-19T11:03:30.917Z,9.40
2023-01-19T11:06:14.246Z,9.80
2023-01-19T11:08:43.110Z,8.50
2023-01-19T11:11:11.936Z,9.20
2023-01-19T11:13:40.213Z,8.20
2023-01-19T11:16:18.875Z,9.70
2023-01-19T11:18:46.972Z,8.00
2023-01-19T11:21:15.859Z,9.50
2023-01-19T11:23:52.582Z,9.60
2023-01-19T11:26:25.766Z,8.60
2023-01-19T11:28:55.675Z,9.00
2023-01-19T11:31:28.580Z,11.40
2023-01-19T11:34:16.430Z,13.30
2023-01-19T11:36:58.994Z,14.30
2023-01-19T11:39:29.739Z,14.40
2023-01-19T11:42:03.474Z,11.10
2023-01-19T11:44:33.597Z,10.90
2023-01-19T11:47:11.756Z,11.60
2023-01-19T11:49:45.180Z,17.20
2023-01-19T11:52:25.321Z,17.20
2023-01-19T11:55:02.291Z,14.00
2023-01-19T11:57:31.473Z,13.70
2023-01-19T12:00:03.162Z,12.10
2023-01-19T12:02:54.429Z,13.20
2023-01-19T12:05:26.340Z,12.60
2023-01-19T12:07:55.116Z,12.40
2023-01-19T12:10:36.056Z,12.50
2023-01-19T12:13:03.692Z,13.00
2023-01-19T12:15:38.449Z,12.00
2023-01-19T12:18:11.401Z,11.80
2023-01-19T12:20:46.167Z,11.10
2023-01-19T12:23:31.430Z,11.30
2023-01-19T12:26:27.924Z,10.10
2023-01-19T12:29:05.368Z,9.30
2023-01-19T12:31:33.246Z,9.80
2023-01-19T12:34:30.507Z,11.10
2023-01-19T12:37:03.465Z,12.80
2023-01-19T12:39:31.663Z,14.20
2023-01-19T12:42:14.871Z,13.70
2023-01-19T12:44:43.652Z,13.90
2023-01-19T12:47:10.340Z,11.10
2023-01-19T12:49:48.550Z,12.60
2023-01-19T12:52:21.284Z,12.40
2023-01-19T12:55:02.550Z,11.80
2023-01-19T12:57:37.714Z,12.10
2023-01-19T13:00:25.612Z,11.40
2023-01-19T13:03:01.064Z,10.10
2023-01-19T13:05:32.821Z,12.40
2023-01-19T13:08:06.267Z,12.90
2023-01-19T13:10:52.183Z,11.80
2023-01-19T13:13:23.389Z,13.50
2023-01-19T13:15:51.167Z,13.90
2023-01-19T13:18:28.104Z,11.90
2023-01-19T13:21:08.397Z,10.80
2023-01-19T13:23:49.395Z,12.40
2023-01-19T13:26:21.391Z,13.30
2023-01-19T13:28:52.021Z,12.40
2023-01-19T13:31:20.102Z,14.50
2023-01-19T13:33:52.824Z,13.90
2023-01-19T13:36:30.178Z,14.10
2023-01-19T13:39:00.516Z,14.90
2023-01-19T13:41:30.951Z,14.20
2023-01-19T13:44:12.373Z,16.40
2023-01-19T13:46:40.321Z,16.50
2023-01-19T13:49:28.625Z,15.80
2023-01-19T13:52:25.859Z,15.40
2023-01-19T13:54:54.681Z,16.50
2023-01-19T13:57:29.192Z,16.90
2023-01-19T14:00:11.574Z,15.80
2023-01-19T14:02:42.069Z,15.20
2023-01-19T14:05:21.914Z,15.50
2023-01-19T14:08:00.246Z,16.30
2023-01-19T14:10:27.880Z,16.00
2023-01-19T14:13:11.990Z,16.40
2023-01-19T14:15:40.330Z,14.50
2023-01-19T14:18:09.949Z,15.00
2023-01-19T14:20:36.894Z,14.90
2023-01-19T14:23:05.522Z,15.10
2023-01-19T14:25:35.299Z,17.60
2023-01-19T14:28:35.100Z,15.90
2023-01-19T14:31:21.515Z,15.10
2023-01-19T14:33:53.887Z,14.30
2023-01-19T14:36:35.535Z,14.70
2023-01-19T14:39:03.338Z,14.90
2023-01-19T14:41:43.503Z,16.40
2023-01-19T14:44:15.428Z,17.90
2023-01-19T14:46:47.399Z,19.70
2023-01-19T14:49:21.567Z,18.70
2023-01-19T14:51:49.208Z,16.60
2023-01-19T14:54:18.587Z,18.90
2023-01-19T14:56:45.663Z,19.20
2023-01-19T14:59:12.564Z,17.80
2023-01-19T15:01:39.483Z,16.90
2023-01-19T15:04:06.581Z,17.80
2023-01-19T15:06:37.776Z,18.10
2023-01-19T15:09:04.511Z,20.10
2023-01-19T15:11:34.803Z,20.40
2023-01-19T15:14:02.226Z,21.30
2023-01-19T15:16:32.546Z,20.60
2023-01-19T15:19:00.496Z,24.30
2023-01-19T15:21:27.622Z,27.80
2023-01-19T15:23:54.889Z,22.00
2023-01-19T15:26:25.491Z,21.20
2023-01-19T15:28:52.668Z,19.00
2023-01-19T15:31:21.920Z,22.20
2023-01-19T15:33:49.436Z,18.60
2023-01-19T15:36:18.806Z,19.80
2023-01-19T15:38:46.444Z,18.30
2023-01-19T15:41:24.122Z,17.00
2023-01-19T15:43:51.094Z,16.30
2023-01-19T15:46:22.875Z,16.10
2023-01-19T15:48:50.260Z,17.30
2023-01-19T15:51:20.875Z,17.30
2023-01-19T15:53:48.760Z,17.60
2023-01-19T15:56:18.049Z,18.70
2023-01-19T15:58:45.649Z,19.80
2023-01-19T16:01:18.784Z,15.20
2023-01-19T16:03:45.866Z,19.50
2023-01-19T16:06:13.306Z,20.00
2023-01-19T16:08:40.852Z,19.00
2023-01-19T16:11:13.290Z,19.60
2023-01-19T16:13:40.437Z,21.40
2023-01-19T16:16:13.338Z,23.00
2023-01-19T16:18:40.036Z,20.20
2023-01-19T16:21:07.264Z,19.00
2023-01-19T16:23:34.134Z,21.90
2023-01-19T16:26:04.425Z,19.60
2023-01-19T16:28:31.263Z,19.80
2023-01-19T16:30:58.009Z,19.30
2023-01-19T16:33:24.790Z,20.10
2023-01-19T16:35:51.803Z,22.30
2023-01-19T16:38:19.071Z,21.30
2023-01-19T16:40:46.469Z,23.10
2023-01-19T16:43:14.668Z,24.20
2023-01-19T16:45:58.671Z,23.30
2023-01-19T16:48:26.292Z,23.80
2023-01-19T16:51:05.677Z,23.00
2023-01-19T16:53:36.508Z,21.40
2023-01-19T16:56:08.238Z,24.10
2023-01-19T16:58:39.001Z,21.20
2023-01-19T17:01:12.030Z,21.50
2023-01-19T17:03:39.297Z,22.90
2023-01-19T17:06:07.981Z,24.20
2023-01-19T17:08:35.431Z,24.70
2023-01-19T17:11:09.919Z,24.70
2023-01-19T17:13:36.862Z,22.70
2023-01-19T17:16:05.662Z,25.20
2023-01-19T17:18:35.626Z,22.80
2023-01-19T17:21:05.158Z,20.50
2023-01-19T17:23:32.278Z,21.20
2023-01-19T17:25:59.279Z,22.20
2023-01-19T17:28:26.577Z,26.00
2023-01-19T17:30:53.637Z,21.50
2023-01-19T17:33:22.239Z,19.00
2023-01-19T17:35:49.760Z,17.60
2023-01-19T17:38:16.842Z,19.90
2023-01-19T17:40:43.640Z,22.10
2023-01-19T17:43:10.431Z,20.30
2023-01-19T17:45:37.726Z,25.00
2023-01-19T17:48:05.093Z,21.60
2023-01-19T17:50:34.153Z,16.80
2023-01-19T17:53:00.766Z,20.40
2023-01-19T17:55:27.578Z,19.40
2023-01-19T17:57:54.249Z,21.20
2023-01-19T18:00:21.469Z,21.50
2023-01-19T18:02:50.541Z,24.90
2023-01-19T18:05:18.640Z,21.70
2023-01-19T18:07:46.791Z,22.30
2023-01-19T18:10:14.404Z,21.20
2023-01-19T18:12:41.733Z,18.40
2023-01-19T18:15:09.514Z,19.00
2023-01-19T18:17:36.320Z,21.30
2023-01-19T18:20:04.212Z,20.00
2023-01-19T18:22:31.835Z,18.60
2023-01-19T18:24:58.778Z,20.50
2023-01-19T18:27:26.205Z,19.00
2023-01-19T18:29:52.975Z,20.20
2023-01-19T18:32:20.779Z,20.50
2023-01-19T18:34:48.753Z,15.90
2023-01-19T18:37:15.458Z,19.00
2023-01-19T18:39:42.398Z,19.40
2023-01-19T18:42:09.441Z,19.70
2023-01-19T18:44:36.524Z,17.30
2023-01-19T18:47:03.178Z,18.80
2023-01-19T18:49:30.124Z,17.10
2023-01-19T18:51:57.116Z,16.10
2023-01-19T18:54:23.970Z,16.30
2023-01-19T18:56:50.799Z,16.20
2023-01-19T18:59:17.798Z,16.80
2023-01-19T19:01:44.590Z,15.90
2023-01-19T19:04:11.565Z,15.00
2023-01-19T19:06:38.352Z,16.00
2023-01-19T19:09:05.118Z,16.30
2023-01-19T19:11:32.087Z,15.20
2023-01-19T19:14:01.803Z,15.20
2023-01-19T19:16:29.912Z,18.40
2023-01-19T19:18:56.810Z,21.30
2023-01-19T19:21:24.851Z,19.00
2023-01-19T19:23:53.361Z,19.10
2023-01-19T19:26:20.841Z,19.20
2023-01-19T19:28:47.729Z,19.70
2023-01-19T19:31:19.769Z,20.50
2023-01-19T19:33:48.202Z,21.70
2023-01-19T19:36:14.925Z,29.60
2023-01-19T19:38:43.749Z,27.20
2023-01-19T19:41:24.070Z,27.80
2023-01-19T19:43:51.316Z,23.60
2023-01-19T19:46:19.742Z,21.60
2023-01-19T19:48:48.465Z,22.70
2023-01-19T19:51:26.469Z,22.10
2023-01-19T19:54:23.257Z,20.70
2023-01-19T19:57:04.620Z,20.60
2023-01-19T19:59:32.304Z,18.50
2023-01-19T20:01:59.273Z,17.80
2023-01-19T20:04:26.174Z,17.50
2023-01-19T20:06:53.021Z,17.00
2023-01-19T20:09:20.705Z,17.70
2023-01-19T20:11:49.147Z,16.70
2023-01-19T20:14:15.931Z,16.50
2023-01-19T20:16:42.943Z,17.60
2023-01-19T20:19:10.191Z,17.00
2023-01-19T20:21:41.363Z,18.50
2023-01-19T20:24:17.131Z,17.40
2023-01-19T20:26:47.773Z,17.70
2023-01-19T20:29:14.678Z,20.40
2023-01-19T20:31:50.849Z,25.10
2023-01-19T20:34:20.795Z,20.40
2023-01-19T20:36:49.819Z,18.60
2023-01-19T20:39:21.507Z,17.30
2023-01-19T20:41:51.057Z,19.60
2023-01-19T20:44:21.764Z,21.00
2023-01-19T20:46:49.265Z,21.50
2023-01-19T20:49:16.359Z,19.10
2023-01-19T20:51:44.734Z,19.50
2023-01-19T20:54:13.756Z,20.10
2023-01-19T20:56:43.099Z,20.60
2023-01-19T20:59:10.849Z,20.90
2023-01-19T21:01:38.529Z,22.10
2023-01-19T21:04:05.368Z,22.80
2023-01-19T21:06:32.582Z,19.00
2023-01-19T21:08:59.472Z,20.10
2023-01-19T21:11:27.002Z,21.90
2023-01-19T21:13:56.020Z,19.10
2023-01-19T21:16:26.145Z,18.90
2023-01-19T21:18:53.313Z,20.10
2023-01-19T21:21:29.769Z,23.00
2023-01-19T21:23:59.471Z,23.50
2023-01-19T21:26:29.211Z,21.10
2023-01-19T21:28:57.614Z,20.40
2023-01-19T21:31:27.563Z,16.40
2023-01-19T21:33:55.999Z,16.20
2023-01-19T21:36:23.991Z,16.80
2023-01-19T21:38:51.858Z,18.70
2023-01-19T21:41:19.694Z,17.20
2023-01-19T21:43:47.459Z,15.90
2023-01-19T21:46:19.393Z,15.50
2023-01-19T21:48:46.973Z,15.40
2023-01-19T21:51:15.564Z,14.40
2023-01-19T21:53:42.999Z,16.10
2023-01-19T21:56:10.738Z,14.10
2023-01-19T21:58:37.778Z,15.20
2023-01-19T22:01:10.249Z,17.10
2023-01-19T22:03:37.152Z,17.70
2023-01-19T22:06:06.735Z,17.10
2023-01-19T22:08:34.303Z,15.10
2023-01-19T22:11:09.032Z,15.90
2023-01-19T22:13:39.634Z,15.70
2023-01-19T22:16:14.713Z,14.30
2023-01-19T22:18:44.170Z,16.00
2023-01-19T22:21:17.630Z,16.10
2023-01-19T22:23:49.044Z,15.70
2023-01-19T22:26:16.206Z,16.80
2023-01-19T22:28:42.905Z,14.40
2023-01-19T22:31:18.131Z,14.70
2023-01-19T22:33:45.482Z,14.50
2023-01-19T22:36:29.863Z,14.30
2023-01-19T22:39:01.741Z,14.10
2023-01-19T22:41:34.283Z,13.90
2023-01-19T22:44:21.172Z,14.50
2023-01-19T22:46:50.068Z,16.60
2023-01-19T22:49:17.817Z,15.40
2023-01-19T22:51:45.372Z,15.10
2023-01-19T22:54:12.838Z,15.90
2023-01-19T22:56:41.215Z,14.90
2023-01-19T22:59:08.341Z,15.00
2023-01-19T23:01:39.087Z,14.50
2023-01-19T23:04:13.324Z,14.00
2023-01-19T23:06:40.640Z,13.40
2023-01-19T23:09:11.368Z,13.30
2023-01-19T23:11:40.510Z,13.80
2023-01-19T23:14:11.606Z,14.60
2023-01-19T23:16:38.293Z,14.50
2023-01-19T23:19:05.067Z,14.50
2023-01-19T23:21:32.786Z,15.80
2023-01-19T23:24:01.904Z,13.70
2023-01-19T23:26:30.200Z,13.80
2023-01-19T23:28:59.965Z,14.70
2023-01-19T23:31:29.589Z,13.70
2023-01-19T23:33:59.311Z,15.20
2023-01-19T23:36:28.886Z,14.50
2023-01-19T23:38:57.785Z,14.60
2023-01-19T23:41:25.959Z,13.30
2023-01-19T23:43:53.048Z,13.60
2023-01-19T23:46:20.892Z,13.30
2023-01-19T23:48:47.823Z,14.20
2023-01-19T23:51:17.323Z,14.80
2023-01-19T23:53:44.777Z,14.50
2023-01-19T23:56:14.112Z,15.60
2023-01-19T23:58:41.727Z,14.70
